createdAt,value
2017-10-29T00:00:18.744Z,11.4
2017-10-29T00:00:59.345Z,11.43
2017-10-29T00:01:39.914Z,11.4
2017-10-29T00:02:20.506Z,11.4
2017-10-29T00:03:01.090Z,11.43
2017-10-29T00:03:41.680Z,11.36
2017-10-29T00:04:22.285Z,11.44
2017-10-29T00:05:02.854Z,11.33
2017-10-29T00:05:43.437Z,11.45
2017-10-29T00:06:24.018Z,11.45
2017-10-29T00:07:04.608Z,11.45
2017-10-29T00:07:45.172Z,11.36
2017-10-29T00:08:25.744Z,11.48
2017-10-29T00:09:06.317Z,11.45
2017-10-29T00:09:46.916Z,11.51
2017-10-29T00:10:27.484Z,11.48
2017-10-29T00:11:08.081Z,11.55
2017-10-29T00:11:48.655Z,11.55
2017-10-29T00:12:29.223Z,11.57
2017-10-29T00:13:09.813Z,11.55
2017-10-29T00:13:50.388Z,11.52
2017-10-29T00:14:30.992Z,11.54
2017-10-29T00:15:11.567Z,11.65
2017-10-29T00:15:52.176Z,11.63
2017-10-29T00:16:32.771Z,11.59
2017-10-29T00:17:13.341Z,11.62
2017-10-29T00:17:53.898Z,11.63
2017-10-29T00:18:34.468Z,11.65
2017-10-29T00:19:15.046Z,11.62
2017-10-29T00:19:55.627Z,11.6
2017-10-29T00:20:36.216Z,11.55
2017-10-29T00:21:16.809Z,11.63
2017-10-29T00:21:57.373Z,11.65
2017-10-29T00:22:37.967Z,11.68
2017-10-29T00:23:18.542Z,11.63
2017-10-29T00:23:59.125Z,11.62
2017-10-29T00:24:39.695Z,11.66
2017-10-29T00:25:20.294Z,11.66
2017-10-29T00:26:00.879Z,11.68
2017-10-29T00:26:41.472Z,11.69
2017-10-29T00:27:22.037Z,11.65
2017-10-29T00:28:02.604Z,11.66
2017-10-29T00:28:43.170Z,11.69
2017-10-29T00:29:23.722Z,11.68
2017-10-29T00:30:04.309Z,11.7
2017-10-29T00:30:44.892Z,11.69
2017-10-29T00:31:25.461Z,11.69
2017-10-29T00:32:06.037Z,11.65
2017-10-29T00:32:46.599Z,11.75
2017-10-29T00:33:27.170Z,11.6
2017-10-29T00:34:07.752Z,11.77
2017-10-29T00:34:48.318Z,11.69
2017-10-29T00:35:28.885Z,11.8
2017-10-29T00:36:09.457Z,11.6
2017-10-29T00:36:50.021Z,11.72
2017-10-29T00:37:30.600Z,11.69
2017-10-29T00:38:11.207Z,11.75
2017-10-29T00:38:51.785Z,11.65
2017-10-29T00:39:32.351Z,11.7
2017-10-29T00:40:12.919Z,11.73
2017-10-29T00:40:53.538Z,11.72
2017-10-29T00:41:34.115Z,11.72
2017-10-29T00:42:14.677Z,11.69
2017-10-29T00:42:55.270Z,11.69
2017-10-29T00:43:35.860Z,11.69
2017-10-29T00:44:16.427Z,11.75
2017-10-29T00:44:56.991Z,11.72
2017-10-29T00:45:37.570Z,11.83
2017-10-29T00:46:18.153Z,11.78
2017-10-29T00:46:58.743Z,11.73
2017-10-29T00:47:39.331Z,11.77
2017-10-29T00:48:19.893Z,11.78
2017-10-29T00:49:00.490Z,11.78
2017-10-29T00:49:41.058Z,11.83
2017-10-29T00:50:21.636Z,11.88
2017-10-29T00:51:02.250Z,11.78
2017-10-29T00:51:42.841Z,11.84
2017-10-29T00:52:23.425Z,11.81
2017-10-29T00:53:04.019Z,11.84
2017-10-29T00:53:44.620Z,11.81
2017-10-29T00:54:25.180Z,11.86
2017-10-29T00:55:05.763Z,11.87
2017-10-29T00:55:46.409Z,11.8
2017-10-29T00:56:27.010Z,11.84
2017-10-29T00:57:07.574Z,11.94
2017-10-29T00:57:48.170Z,11.86
2017-10-29T00:58:28.766Z,11.91
2017-10-29T00:59:09.354Z,11.88
2017-10-29T00:59:49.928Z,11.87
2017-10-29T01:00:30.502Z,11.9
2017-10-29T01:01:11.086Z,11.95
2017-10-29T01:01:51.661Z,11.91
2017-10-29T01:02:32.259Z,11.97
2017-10-29T01:03:12.835Z,11.99
2017-10-29T01:03:53.431Z,11.88
2017-10-29T01:04:34.012Z,11.95
2017-10-29T01:05:14.587Z,11.88
2017-10-29T01:05:55.162Z,11.94
2017-10-29T01:06:35.756Z,11.95
2017-10-29T01:07:16.339Z,11.95
2017-10-29T01:07:56.954Z,11.94
2017-10-29T01:08:37.547Z,11.91
2017-10-29T01:09:18.159Z,11.95
2017-10-29T01:09:58.723Z,12
2017-10-29T01:10:39.302Z,11.87
2017-10-29T01:11:19.908Z,11.99
2017-10-29T01:12:00.490Z,11.95
2017-10-29T01:12:41.056Z,11.87
2017-10-29T01:13:21.650Z,11.97
2017-10-29T01:14:02.221Z,11.97
2017-10-29T01:14:42.789Z,11.88
2017-10-29T01:15:23.373Z,11.99
2017-10-29T01:16:03.942Z,11.94
2017-10-29T01:16:44.516Z,11.95
2017-10-29T01:17:25.093Z,11.95
2017-10-29T01:18:05.676Z,11.94
2017-10-29T01:18:46.269Z,12.06
2017-10-29T01:19:26.851Z,11.9
2017-10-29T01:20:07.430Z,12.04
2017-10-29T01:20:47.996Z,12.02
2017-10-29T01:21:28.576Z,11.91
2017-10-29T01:22:09.149Z,11.99
2017-10-29T01:22:49.725Z,12.03
2017-10-29T01:23:30.291Z,12.03
2017-10-29T01:24:10.893Z,12.04
2017-10-29T01:24:51.488Z,12.04
2017-10-29T01:25:32.060Z,12.02
2017-10-29T01:26:12.632Z,11.99
2017-10-29T01:26:53.209Z,12.02
2017-10-29T01:27:33.789Z,11.97
2017-10-29T01:28:14.354Z,11.99
2017-10-29T01:28:54.962Z,12.02
2017-10-29T01:29:35.520Z,12.03
2017-10-29T01:30:16.088Z,11.97
2017-10-29T01:30:56.674Z,12.06
2017-10-29T01:31:37.262Z,12.12
2017-10-29T01:32:17.828Z,11.99
2017-10-29T01:32:58.417Z,12.02
2017-10-29T01:33:38.995Z,12.02
2017-10-29T01:34:19.580Z,11.99
2017-10-29T01:35:00.200Z,11.95
2017-10-29T01:35:40.762Z,12.02
2017-10-29T01:36:21.336Z,12.07
2017-10-29T01:37:01.917Z,11.99
2017-10-29T01:37:42.483Z,12.02
2017-10-29T01:38:23.057Z,12.09
2017-10-29T01:39:03.619Z,12.03
2017-10-29T01:39:44.199Z,12.09
2017-10-29T01:40:24.781Z,11.99
2017-10-29T01:41:05.373Z,12
2017-10-29T01:41:45.980Z,12.07
2017-10-29T01:42:26.584Z,11.95
2017-10-29T01:43:07.205Z,12.03
2017-10-29T01:43:47.788Z,12
2017-10-29T01:44:28.394Z,11.97
2017-10-29T01:45:08.949Z,12.07
2017-10-29T01:45:49.539Z,12.06
2017-10-29T01:46:30.119Z,12.06
2017-10-29T01:47:10.684Z,12.02
2017-10-29T01:47:51.243Z,12.06
2017-10-29T01:48:31.816Z,12.02
2017-10-29T01:49:12.401Z,11.99
2017-10-29T01:49:52.988Z,12.03
2017-10-29T01:50:33.587Z,11.95
2017-10-29T01:51:14.151Z,11.99
2017-10-29T01:51:54.751Z,12
2017-10-29T01:52:35.353Z,12.02
2017-10-29T01:53:15.929Z,12.04
2017-10-29T01:53:56.514Z,11.99
2017-10-29T01:54:37.083Z,11.99
2017-10-29T01:55:17.664Z,11.99
2017-10-29T01:55:58.247Z,11.97
2017-10-29T01:56:38.821Z,11.95
2017-10-29T01:57:19.396Z,12.06
2017-10-29T01:57:59.967Z,12
2017-10-29T01:58:40.554Z,12.02
2017-10-29T01:59:21.107Z,11.9
2017-10-29T02:00:01.696Z,12.02
2017-10-29T02:00:42.265Z,11.97
2017-10-29T02:01:22.836Z,11.94
2017-10-29T02:02:03.411Z,11.87
2017-10-29T02:02:44.002Z,12.02
2017-10-29T02:03:24.622Z,11.95
2017-10-29T02:04:05.212Z,12.02
2017-10-29T02:04:45.799Z,12.06
2017-10-29T02:05:26.388Z,11.94
2017-10-29T02:06:06.948Z,11.94
2017-10-29T02:06:47.521Z,11.94
2017-10-29T02:07:28.137Z,11.97
2017-10-29T02:08:08.704Z,11.94
2017-10-29T02:08:49.276Z,11.94
2017-10-29T02:09:29.903Z,11.88
2017-10-29T02:10:10.460Z,11.91
2017-10-29T02:10:51.035Z,11.94
2017-10-29T02:11:31.602Z,11.95
2017-10-29T02:12:12.184Z,11.86
2017-10-29T02:12:52.759Z,11.88
2017-10-29T02:13:33.340Z,11.9
2017-10-29T02:14:13.904Z,11.99
2017-10-29T02:14:54.503Z,11.91
2017-10-29T02:15:35.131Z,11.97
2017-10-29T02:16:15.690Z,11.91
2017-10-29T02:16:56.273Z,11.94
2017-10-29T02:17:36.851Z,11.91
2017-10-29T02:18:17.487Z,11.94
2017-10-29T02:18:58.041Z,11.94
2017-10-29T02:19:38.607Z,11.94
2017-10-29T02:20:19.190Z,11.99
2017-10-29T02:20:59.801Z,11.99
2017-10-29T02:21:40.379Z,11.95
2017-10-29T02:22:21.013Z,11.91
2017-10-29T02:23:01.597Z,11.94
2017-10-29T02:23:42.218Z,11.99
2017-10-29T02:24:22.762Z,12.07
2017-10-29T02:25:03.341Z,11.91
2017-10-29T02:25:43.913Z,11.91
2017-10-29T02:26:24.499Z,11.95
2017-10-29T02:27:05.072Z,11.88
2017-10-29T02:27:45.685Z,12.04
2017-10-29T02:28:26.274Z,12.02
2017-10-29T02:29:06.853Z,12.04
2017-10-29T02:29:47.482Z,12
2017-10-29T02:30:28.078Z,12
2017-10-29T02:31:08.666Z,12.09
2017-10-29T02:31:49.235Z,12.06
2017-10-29T02:32:29.806Z,12.1
2017-10-29T02:33:10.428Z,12
2017-10-29T02:33:51.015Z,12.02
2017-10-29T02:34:31.594Z,11.94
2017-10-29T02:35:12.191Z,11.99
2017-10-29T02:35:52.767Z,11.94
2017-10-29T02:36:33.366Z,11.95
2017-10-29T02:37:13.928Z,11.91
2017-10-29T02:37:54.499Z,11.97
2017-10-29T02:38:35.058Z,11.95
2017-10-29T02:39:15.636Z,11.95
2017-10-29T02:39:56.228Z,11.91
2017-10-29T02:40:36.807Z,11.9
2017-10-29T02:41:17.359Z,11.94
2017-10-29T02:41:57.934Z,12
2017-10-29T02:42:38.519Z,11.91
2017-10-29T02:43:19.100Z,11.94
2017-10-29T02:43:59.703Z,11.97
2017-10-29T02:44:40.277Z,11.95
2017-10-29T02:45:20.872Z,11.95
2017-10-29T02:46:01.449Z,11.91
2017-10-29T02:46:42.017Z,11.86
2017-10-29T02:47:22.581Z,11.87
2017-10-29T02:48:03.148Z,11.81
2017-10-29T02:48:43.712Z,11.87
2017-10-29T02:49:24.327Z,11.81
2017-10-29T02:50:04.914Z,11.84
2017-10-29T02:50:45.486Z,11.8
2017-10-29T02:51:26.055Z,11.78
2017-10-29T02:52:06.647Z,11.84
2017-10-29T02:52:47.194Z,11.81
2017-10-29T02:53:27.788Z,11.9
2017-10-29T02:54:08.345Z,11.81
2017-10-29T02:54:49.001Z,11.78
2017-10-29T02:55:29.491Z,11.84
2017-10-29T02:56:10.056Z,11.73
2017-10-29T02:56:50.645Z,11.81
2017-10-29T02:57:31.209Z,11.75
2017-10-29T02:58:11.794Z,11.77
2017-10-29T02:58:52.365Z,11.73
2017-10-29T02:59:32.929Z,11.7
2017-10-29T03:00:13.543Z,11.73
2017-10-29T03:00:54.133Z,11.72
2017-10-29T03:01:34.707Z,11.7
2017-10-29T03:02:15.292Z,11.65
2017-10-29T03:02:55.873Z,11.73
2017-10-29T03:03:36.447Z,11.72
2017-10-29T03:04:17.035Z,11.7
2017-10-29T03:04:57.607Z,11.69
2017-10-29T03:05:38.237Z,11.73
2017-10-29T03:06:18.817Z,11.75
2017-10-29T03:06:59.388Z,11.68
2017-10-29T03:07:39.949Z,11.75
2017-10-29T03:08:20.555Z,11.66
2017-10-29T03:09:01.109Z,11.66
2017-10-29T03:09:41.727Z,11.63
2017-10-29T03:10:22.338Z,11.69
2017-10-29T03:11:02.907Z,11.65
2017-10-29T03:11:43.496Z,11.65
2017-10-29T03:12:24.049Z,11.66
2017-10-29T03:13:04.620Z,11.72
2017-10-29T03:13:45.233Z,11.6
2017-10-29T03:14:25.856Z,11.75
2017-10-29T03:15:06.444Z,11.63
2017-10-29T03:15:47.005Z,11.68
2017-10-29T03:16:27.586Z,11.66
2017-10-29T03:17:08.166Z,11.7
2017-10-29T03:17:48.759Z,11.66
2017-10-29T03:18:29.332Z,11.66
2017-10-29T03:19:09.916Z,11.63
2017-10-29T03:19:50.548Z,11.75
2017-10-29T03:20:31.123Z,11.66
2017-10-29T03:21:11.718Z,11.72
2017-10-29T03:21:52.319Z,11.68
2017-10-29T03:22:32.921Z,11.65
2017-10-29T03:23:13.477Z,11.62
2017-10-29T03:23:54.058Z,11.54
2017-10-29T03:24:34.634Z,11.65
2017-10-29T03:25:15.222Z,11.68
2017-10-29T03:25:55.892Z,11.7
2017-10-29T03:26:36.452Z,11.65
2017-10-29T03:27:17.040Z,11.66
2017-10-29T03:27:57.637Z,11.65
2017-10-29T03:28:38.209Z,11.72
2017-10-29T03:29:18.825Z,11.75
2017-10-29T03:29:59.391Z,11.68
2017-10-29T03:30:39.986Z,11.62
2017-10-29T03:31:20.615Z,11.72
2017-10-29T03:32:01.187Z,11.72
2017-10-29T03:32:41.805Z,11.7
2017-10-29T03:33:22.373Z,11.7
2017-10-29T03:34:02.945Z,11.62
2017-10-29T03:34:43.518Z,11.63
2017-10-29T03:35:24.089Z,11.63
2017-10-29T03:36:04.665Z,11.68
2017-10-29T03:36:45.264Z,11.66
2017-10-29T03:37:25.875Z,11.72
2017-10-29T03:38:06.458Z,11.68
2017-10-29T03:38:47.028Z,11.68
2017-10-29T03:39:27.634Z,11.65
2017-10-29T03:40:08.228Z,11.75
2017-10-29T03:40:48.833Z,11.65
2017-10-29T03:41:29.401Z,11.66
2017-10-29T03:42:09.972Z,11.65
2017-10-29T03:42:50.566Z,11.72
2017-10-29T03:43:31.157Z,11.65
2017-10-29T03:44:11.750Z,11.72
2017-10-29T03:44:52.351Z,11.75
2017-10-29T03:45:32.931Z,11.66
2017-10-29T03:46:13.517Z,11.65
2017-10-29T03:46:54.104Z,11.73
2017-10-29T03:47:34.688Z,11.65
2017-10-29T03:48:15.295Z,11.7
2017-10-29T03:48:55.890Z,11.7
2017-10-29T03:49:36.454Z,11.62
2017-10-29T03:50:17.088Z,11.72
2017-10-29T03:50:57.676Z,11.7
2017-10-29T03:51:38.262Z,11.69
2017-10-29T03:52:18.827Z,11.55
2017-10-29T03:52:59.473Z,11.66
2017-10-29T03:53:40.052Z,11.63
2017-10-29T03:54:20.660Z,11.6
2017-10-29T03:55:01.262Z,11.62
2017-10-29T03:55:41.869Z,11.51
2017-10-29T03:56:22.431Z,11.52
2017-10-29T03:57:02.993Z,11.32
2017-10-29T03:57:43.549Z,11.32
2017-10-29T03:58:24.105Z,11.27
2017-10-29T03:59:04.673Z,11.18
2017-10-29T03:59:45.247Z,10.99
2017-10-29T04:00:25.818Z,10.9
2017-10-29T04:01:06.388Z,10.96
2017-10-29T04:01:46.961Z,10.87
2017-10-29T04:02:27.581Z,10.79
2017-10-29T04:03:08.155Z,10.76
2017-10-29T04:03:48.723Z,10.76
2017-10-29T04:04:29.300Z,10.78
2017-10-29T04:05:09.888Z,10.74
2017-10-29T04:05:50.450Z,10.67
2017-10-29T04:06:31.027Z,10.69
2017-10-29T04:07:11.600Z,10.71
2017-10-29T04:07:52.188Z,10.59
2017-10-29T04:08:32.772Z,10.6
2017-10-29T04:09:13.353Z,10.61
2017-10-29T04:09:53.951Z,10.6
2017-10-29T04:10:34.530Z,10.54
2017-10-29T04:11:15.110Z,10.48
2017-10-29T04:11:55.730Z,10.48
2017-10-29T04:12:36.303Z,10.44
2017-10-29T04:13:16.878Z,10.41
2017-10-29T04:13:57.464Z,10.49
2017-10-29T04:14:38.034Z,10.34
2017-10-29T04:15:18.600Z,10.35
2017-10-29T04:15:59.183Z,10.4
2017-10-29T04:16:39.751Z,10.35
2017-10-29T04:17:20.319Z,10.34
2017-10-29T04:18:00.890Z,10.25
2017-10-29T04:18:41.484Z,10.31
2017-10-29T04:19:22.079Z,10.26
2017-10-29T04:20:02.642Z,10.28
2017-10-29T04:20:43.201Z,10.33
2017-10-29T04:21:23.797Z,10.3
2017-10-29T04:22:04.406Z,10.26
2017-10-29T04:22:44.976Z,10.28
2017-10-29T04:23:25.587Z,10.3
2017-10-29T04:24:06.207Z,10.34
2017-10-29T04:24:46.782Z,10.26
2017-10-29T04:25:27.371Z,10.31
2017-10-29T04:26:07.943Z,10.31
2017-10-29T04:26:48.527Z,10.26
2017-10-29T04:27:29.132Z,10.33
2017-10-29T04:28:09.688Z,10.34
2017-10-29T04:28:50.258Z,10.26
2017-10-29T04:29:30.835Z,10.34
2017-10-29T04:30:11.402Z,10.3
2017-10-29T04:30:52.000Z,10.38
2017-10-29T04:31:32.546Z,10.23
2017-10-29T04:32:13.144Z,10.35
2017-10-29T04:32:53.711Z,10.34
2017-10-29T04:33:34.284Z,10.37
2017-10-29T04:34:14.867Z,10.23
2017-10-29T04:34:55.444Z,10.26
2017-10-29T04:35:36.015Z,10.28
2017-10-29T04:36:16.569Z,10.35
2017-10-29T04:36:57.134Z,10.28
2017-10-29T04:37:37.719Z,10.23
2017-10-29T04:38:18.314Z,10.33
2017-10-29T04:38:58.908Z,10.34
2017-10-29T04:39:39.480Z,10.35
2017-10-29T04:40:20.054Z,10.23
2017-10-29T04:41:00.640Z,10.31
2017-10-29T04:41:41.220Z,10.37
2017-10-29T04:42:21.782Z,10.23
2017-10-29T04:43:02.362Z,10.25
2017-10-29T04:43:42.952Z,10.31
2017-10-29T04:44:23.526Z,10.22
2017-10-29T04:45:04.190Z,10.26
2017-10-29T04:45:44.757Z,10.2
2017-10-29T04:46:25.322Z,10.15
2017-10-29T04:47:05.902Z,10.07
2017-10-29T04:47:46.460Z,10.12
2017-10-29T04:48:27.032Z,10.07
2017-10-29T04:49:07.604Z,10.01
2017-10-29T04:49:48.175Z,10.04
2017-10-29T04:50:28.750Z,9.97
2017-10-29T04:51:09.316Z,9.98
2017-10-29T04:51:49.898Z,9.97
2017-10-29T04:52:30.489Z,10.02
2017-10-29T04:53:11.048Z,9.95
2017-10-29T04:53:51.624Z,9.97
2017-10-29T04:54:32.215Z,9.95
2017-10-29T04:55:12.788Z,9.99
2017-10-29T04:55:53.381Z,9.94
2017-10-29T04:56:33.957Z,9.98
2017-10-29T04:57:14.550Z,9.99
2017-10-29T04:57:55.131Z,9.92
2017-10-29T04:58:35.701Z,9.95
2017-10-29T04:59:16.296Z,9.87
2017-10-29T04:59:56.859Z,9.86
2017-10-29T05:00:37.463Z,9.87
2017-10-29T05:01:18.053Z,9.86
2017-10-29T05:01:58.616Z,9.8
2017-10-29T05:02:39.244Z,9.92
2017-10-29T05:03:19.799Z,9.73
2017-10-29T05:04:00.361Z,9.83
2017-10-29T05:04:40.957Z,9.77
2017-10-29T05:05:21.535Z,9.79
2017-10-29T05:06:02.103Z,9.74
2017-10-29T05:06:42.697Z,9.72
2017-10-29T05:07:23.253Z,9.74
2017-10-29T05:08:03.828Z,9.73
2017-10-29T05:08:44.405Z,9.68
2017-10-29T05:09:24.967Z,9.76
2017-10-29T05:10:05.533Z,9.73
2017-10-29T05:10:46.105Z,9.68
2017-10-29T05:11:26.674Z,9.73
2017-10-29T05:12:07.259Z,9.74
2017-10-29T05:12:47.837Z,9.72
2017-10-29T05:13:28.414Z,9.68
2017-10-29T05:14:08.982Z,9.68
2017-10-29T05:14:49.564Z,9.69
2017-10-29T05:15:30.150Z,9.69
2017-10-29T05:16:10.726Z,9.77
2017-10-29T05:16:51.317Z,9.69
2017-10-29T05:17:31.877Z,9.68
2017-10-29T05:18:12.451Z,9.74
2017-10-29T05:18:53.044Z,9.69
2017-10-29T05:19:33.648Z,9.69
2017-10-29T05:20:14.254Z,9.69
2017-10-29T05:20:54.834Z,9.66
2017-10-29T05:21:35.405Z,9.65
2017-10-29T05:22:16.009Z,9.61
2017-10-29T05:22:56.586Z,9.64
2017-10-29T05:23:37.155Z,9.68
2017-10-29T05:24:17.731Z,9.66
2017-10-29T05:24:58.300Z,9.74
2017-10-29T05:25:38.864Z,9.69
2017-10-29T05:26:19.450Z,9.59
2017-10-29T05:27:00.031Z,9.61
2017-10-29T05:27:40.625Z,9.59
2017-10-29T05:28:21.212Z,9.65
2017-10-29T05:29:01.914Z,9.64
2017-10-29T05:29:42.474Z,9.64
2017-10-29T05:30:23.058Z,9.59
2017-10-29T05:31:03.649Z,9.65
2017-10-29T05:31:44.228Z,9.62
2017-10-29T05:32:24.826Z,9.61
2017-10-29T05:33:05.372Z,9.65
2017-10-29T05:33:45.946Z,9.68
2017-10-29T05:34:26.546Z,9.64
2017-10-29T05:35:07.135Z,9.62
2017-10-29T05:35:47.712Z,9.72
2017-10-29T05:36:28.281Z,9.61
2017-10-29T05:37:08.882Z,9.62
2017-10-29T05:37:49.453Z,9.65
2017-10-29T05:38:30.014Z,9.65
2017-10-29T05:39:10.620Z,9.65
2017-10-29T05:39:51.188Z,9.66
2017-10-29T05:40:31.758Z,9.62
2017-10-29T05:41:12.352Z,9.62
2017-10-29T05:41:52.914Z,9.59
2017-10-29T05:42:33.499Z,9.48
2017-10-29T05:43:14.094Z,9.61
2017-10-29T05:43:54.655Z,9.5
2017-10-29T05:44:35.240Z,9.56
2017-10-29T05:45:15.827Z,9.54
2017-10-29T05:45:56.399Z,9.54
2017-10-29T05:46:36.984Z,9.55
2017-10-29T05:47:17.561Z,9.46
2017-10-29T05:47:58.125Z,9.5
2017-10-29T05:48:38.693Z,9.5
2017-10-29T05:49:19.329Z,9.51
2017-10-29T05:49:59.921Z,9.51
2017-10-29T05:50:40.510Z,9.47
2017-10-29T05:51:21.118Z,9.51
2017-10-29T05:52:01.694Z,9.58
2017-10-29T05:52:42.248Z,9.51
2017-10-29T05:53:22.823Z,9.51
2017-10-29T05:54:03.410Z,9.55
2017-10-29T05:54:44.028Z,9.59
2017-10-29T05:55:24.590Z,9.61
2017-10-29T05:56:05.149Z,9.48
2017-10-29T05:56:45.761Z,9.64
2017-10-29T05:57:26.399Z,9.64
2017-10-29T05:58:06.922Z,9.65
2017-10-29T05:58:47.514Z,9.59
2017-10-29T05:59:28.098Z,9.66
2017-10-29T06:00:08.662Z,9.62
2017-10-29T06:00:49.278Z,9.62
2017-10-29T06:01:29.862Z,9.65
2017-10-29T06:02:10.448Z,9.65
2017-10-29T06:02:51.040Z,9.65
2017-10-29T06:03:31.620Z,9.62
2017-10-29T06:04:12.206Z,9.64
2017-10-29T06:04:52.788Z,9.59
2017-10-29T06:05:33.369Z,9.51
2017-10-29T06:06:13.963Z,9.5
2017-10-29T06:06:54.537Z,9.47
2017-10-29T06:07:35.138Z,9.5
2017-10-29T06:08:15.727Z,9.55
2017-10-29T06:08:56.313Z,9.61
2017-10-29T06:09:36.886Z,9.61
2017-10-29T06:10:17.445Z,9.62
2017-10-29T06:10:58.044Z,9.46
2017-10-29T06:11:38.644Z,9.51
2017-10-29T06:12:19.214Z,9.54
2017-10-29T06:12:59.783Z,9.47
2017-10-29T06:13:40.372Z,9.51
2017-10-29T06:14:20.957Z,9.54
2017-10-29T06:15:01.553Z,9.54
2017-10-29T06:15:42.153Z,9.47
2017-10-29T06:16:22.720Z,9.46
2017-10-29T06:17:03.292Z,9.44
2017-10-29T06:17:43.859Z,9.47
2017-10-29T06:18:24.442Z,9.51
2017-10-29T06:19:05.032Z,9.44
2017-10-29T06:19:45.600Z,9.36
2017-10-29T06:20:26.168Z,9.43
2017-10-29T06:21:06.744Z,9.39
2017-10-29T06:21:47.317Z,9.46
2017-10-29T06:22:27.885Z,9.4
2017-10-29T06:23:08.476Z,9.41
2017-10-29T06:23:49.071Z,9.43
2017-10-29T06:24:29.663Z,9.4
2017-10-29T06:25:10.227Z,9.36
2017-10-29T06:25:50.802Z,9.39
2017-10-29T06:26:31.366Z,9.36
2017-10-29T06:27:11.938Z,9.36
2017-10-29T06:27:52.518Z,9.36
2017-10-29T06:28:33.110Z,9.37
2017-10-29T06:29:13.672Z,9.37
2017-10-29T06:29:54.257Z,9.36
2017-10-29T06:30:34.830Z,9.39
2017-10-29T06:31:15.439Z,9.37
2017-10-29T06:31:56.025Z,9.39
2017-10-29T06:32:36.578Z,9.36
2017-10-29T06:33:17.167Z,9.36
2017-10-29T06:33:57.749Z,9.39
2017-10-29T06:34:38.346Z,9.39
2017-10-29T06:35:18.918Z,9.39
2017-10-29T06:35:59.519Z,9.37
2017-10-29T06:36:40.085Z,9.37
2017-10-29T06:37:20.687Z,9.4
2017-10-29T06:38:01.273Z,9.41
2017-10-29T06:38:41.849Z,9.37
2017-10-29T06:39:22.419Z,9.37
2017-10-29T06:40:03.003Z,9.39
2017-10-29T06:40:43.556Z,9.34
2017-10-29T06:41:24.130Z,9.4
2017-10-29T06:42:04.717Z,9.37
2017-10-29T06:42:45.326Z,9.41
2017-10-29T06:43:25.904Z,9.39
2017-10-29T06:44:06.474Z,9.41
2017-10-29T06:44:47.087Z,9.41
2017-10-29T06:45:27.679Z,9.4
2017-10-29T06:46:08.257Z,9.41
2017-10-29T06:46:48.839Z,9.5
2017-10-29T06:47:29.415Z,9.36
2017-10-29T06:48:10.044Z,9.46
2017-10-29T06:48:50.623Z,9.47
2017-10-29T06:49:31.207Z,9.4
2017-10-29T06:50:11.777Z,9.46
2017-10-29T06:50:52.352Z,9.37
2017-10-29T06:51:32.951Z,9.37
2017-10-29T06:52:13.495Z,9.39
2017-10-29T06:52:54.074Z,9.37
2017-10-29T06:53:34.661Z,9.39
2017-10-29T06:54:15.230Z,9.4
2017-10-29T06:54:55.803Z,9.39
2017-10-29T06:55:36.388Z,9.34
2017-10-29T06:56:16.981Z,9.29
2017-10-29T06:56:57.576Z,9.32
2017-10-29T06:57:38.151Z,9.26
2017-10-29T06:58:18.723Z,9.26
2017-10-29T06:58:59.322Z,9.19
2017-10-29T06:59:39.902Z,9.26
2017-10-29T07:00:20.500Z,9.21
2017-10-29T07:01:01.107Z,9.26
2017-10-29T07:01:41.701Z,9.25
2017-10-29T07:02:22.259Z,9.26
2017-10-29T07:03:02.837Z,9.28
2017-10-29T07:03:43.422Z,9.23
2017-10-29T07:04:24.095Z,9.22
2017-10-29T07:05:04.696Z,9.26
2017-10-29T07:05:45.257Z,9.19
2017-10-29T07:06:25.833Z,9.21
2017-10-29T07:07:06.412Z,9.25
2017-10-29T07:07:46.976Z,9.23
2017-10-29T07:08:27.548Z,9.26
2017-10-29T07:09:08.160Z,9.23
2017-10-29T07:09:48.762Z,9.23
2017-10-29T07:10:29.343Z,9.29
2017-10-29T07:11:09.919Z,9.31
2017-10-29T07:11:50.530Z,9.28
2017-10-29T07:12:31.097Z,9.34
2017-10-29T07:13:11.672Z,9.29
2017-10-29T07:13:52.263Z,9.37
2017-10-29T07:14:32.839Z,9.32
2017-10-29T07:15:13.404Z,9.36
2017-10-29T07:15:53.987Z,9.36
2017-10-29T07:16:34.574Z,9.37
2017-10-29T07:17:15.184Z,9.39
2017-10-29T07:17:55.761Z,9.36
2017-10-29T07:18:36.524Z,9.36
2017-10-29T07:19:17.255Z,9.39
2017-10-29T07:19:57.825Z,9.36
2017-10-29T07:20:38.459Z,9.37
2017-10-29T07:21:19.401Z,9.36
2017-10-29T07:22:00.074Z,9.36
2017-10-29T07:22:40.740Z,9.39
2017-10-29T07:23:21.317Z,9.34
2017-10-29T07:24:01.984Z,9.43
2017-10-29T07:24:42.716Z,9.39
2017-10-29T07:25:23.355Z,9.37
2017-10-29T07:26:03.971Z,9.37
2017-10-29T07:26:44.545Z,9.41
2017-10-29T07:27:25.241Z,9.41
2017-10-29T07:28:05.808Z,9.41
2017-10-29T07:28:46.388Z,9.47
2017-10-29T07:29:27.135Z,9.41
2017-10-29T07:30:07.733Z,9.4
2017-10-29T07:30:48.322Z,9.48
2017-10-29T07:31:29.043Z,9.37
2017-10-29T07:32:09.630Z,9.47
2017-10-29T07:32:50.241Z,9.54
2017-10-29T07:33:30.895Z,9.54
2017-10-29T07:34:11.576Z,9.51
2017-10-29T07:34:52.217Z,9.54
2017-10-29T07:35:32.782Z,9.5
2017-10-29T07:36:13.439Z,9.62
2017-10-29T07:36:54.026Z,9.65
2017-10-29T07:37:34.590Z,9.68
2017-10-29T07:38:15.155Z,9.59
2017-10-29T07:38:55.870Z,9.64
2017-10-29T07:39:36.744Z,9.65
2017-10-29T07:40:17.846Z,9.61
2017-10-29T07:40:58.518Z,9.64
2017-10-29T07:41:39.126Z,9.62
2017-10-29T07:42:19.898Z,9.64
2017-10-29T07:43:01.364Z,9.61
2017-10-29T07:43:42.132Z,9.61
2017-10-29T07:44:23.048Z,9.61
2017-10-29T07:45:04.164Z,9.65
2017-10-29T07:45:47.366Z,9.66
2017-10-29T07:46:28.059Z,9.64
2017-10-29T07:47:09.560Z,9.61
2017-10-29T07:47:50.503Z,9.59
2017-10-29T07:48:32.841Z,9.66
2017-10-29T07:49:14.000Z,9.64
2017-10-29T07:49:54.851Z,9.62
2017-10-29T07:50:35.475Z,9.62
2017-10-29T07:51:16.236Z,9.62
2017-10-29T07:51:56.874Z,9.64
2017-10-29T07:52:37.553Z,9.65
2017-10-29T07:53:18.132Z,9.64
2017-10-29T07:53:58.729Z,9.61
2017-10-29T07:54:39.333Z,9.5
2017-10-29T07:55:20.021Z,9.54
2017-10-29T07:56:00.629Z,9.55
2017-10-29T07:56:41.407Z,9.56
2017-10-29T07:57:21.970Z,9.51
2017-10-29T07:58:02.536Z,9.5
2017-10-29T07:58:43.113Z,9.43
2017-10-29T07:59:23.735Z,9.47
2017-10-29T08:00:04.301Z,9.47
2017-10-29T08:00:44.875Z,9.47
2017-10-29T08:01:25.460Z,9.37
2017-10-29T08:02:06.060Z,9.4
2017-10-29T08:02:46.651Z,9.32
2017-10-29T08:03:28.407Z,9.41
2017-10-29T08:04:08.976Z,9.37
2017-10-29T08:04:49.558Z,9.36
2017-10-29T08:05:30.141Z,9.34
2017-10-29T08:06:10.998Z,9.4
2017-10-29T08:06:51.615Z,9.34
2017-10-29T08:07:32.256Z,9.39
2017-10-29T08:08:12.890Z,9.37
2017-10-29T08:08:53.524Z,9.31
2017-10-29T08:09:34.286Z,9.39
2017-10-29T08:10:14.929Z,9.37
2017-10-29T08:10:56.052Z,9.28
2017-10-29T08:11:36.758Z,9.32
2017-10-29T08:12:17.940Z,9.21
2017-10-29T08:12:58.630Z,9.31
2017-10-29T08:13:39.323Z,9.28
2017-10-29T08:14:20.126Z,9.26
2017-10-29T08:15:00.692Z,9.34
2017-10-29T08:15:41.264Z,9.32
2017-10-29T08:16:21.830Z,9.34
2017-10-29T08:17:02.560Z,9.36
2017-10-29T08:17:43.128Z,9.39
2017-10-29T08:18:23.734Z,9.32
2017-10-29T08:19:04.302Z,9.34
2017-10-29T08:19:44.875Z,9.31
2017-10-29T08:20:25.732Z,9.31
2017-10-29T08:21:06.347Z,9.34
2017-10-29T08:21:46.896Z,9.28
2017-10-29T08:22:27.479Z,9.31
2017-10-29T08:23:08.084Z,9.29
2017-10-29T08:23:48.998Z,9.31
2017-10-29T08:24:29.965Z,9.31
2017-10-29T08:25:10.914Z,9.31
2017-10-29T08:25:52.896Z,9.36
2017-10-29T08:26:33.638Z,9.32
2017-10-29T08:27:14.209Z,9.36
2017-10-29T08:27:55.088Z,9.36
2017-10-29T08:28:36.091Z,9.36
2017-10-29T08:29:19.174Z,9.31
2017-10-29T08:30:01.251Z,9.29
2017-10-29T08:30:44.280Z,9.26
2017-10-29T08:31:26.032Z,9.19
2017-10-29T08:32:07.112Z,9.29
2017-10-29T08:32:49.212Z,9.29
2017-10-29T08:33:30.162Z,9.22
2017-10-29T08:34:12.321Z,9.21
2017-10-29T08:34:54.626Z,9.13
2017-10-29T08:35:36.499Z,9.14
2017-10-29T08:36:20.526Z,9.13
2017-10-29T08:37:01.736Z,9.19
2017-10-29T08:37:43.434Z,9.08
2017-10-29T08:38:25.254Z,9.14
2017-10-29T08:39:07.027Z,9.19
2017-10-29T08:39:48.176Z,9.21
2017-10-29T08:40:30.846Z,9.22
2017-10-29T08:41:13.071Z,9.1
2017-10-29T08:41:54.440Z,9.26
2017-10-29T08:42:36.226Z,9.08
2017-10-29T08:43:18.117Z,9.1
2017-10-29T08:44:01.045Z,9.1
2017-10-29T08:44:41.905Z,9.04
2017-10-29T08:45:23.743Z,9.13
2017-10-29T08:46:04.621Z,9.1
2017-10-29T08:46:45.213Z,8.97
2017-10-29T08:47:25.836Z,8.97
2017-10-29T08:48:06.441Z,8.99
2017-10-29T08:48:47.323Z,9.04
2017-10-29T08:49:28.080Z,8.97
2017-10-29T08:50:08.716Z,8.97
2017-10-29T08:50:49.314Z,9
2017-10-29T08:51:29.972Z,9.04
2017-10-29T08:52:10.983Z,8.99
2017-10-29T08:52:52.178Z,9.18
2017-10-29T08:53:32.922Z,9.02